Time;durP1;ratioP1;P1;durP2;ratioP2;P2;SDS_P1;SDS_P2;PMS_P1;PMS_P2;Temp;Humidity;BMP_temperature;BMP_pressure;BME280_temperature;BME280_humidity;BME280_pressure;Samples;Min_cycle;Max_cycle;Signal;HPM_P1;HPM_P2
2022/01/14 00:02:05;;;;;;;24.05;14.27;;;6.80;99.90;;;;;;5066921;28;20155;-69
2022/01/14 00:04:31;;;;;;;27.67;13.55;;;6.80;99.90;;;;;;5050418;28;20087;-68
2022/01/14 00:06:57;;;;;;;30.40;13.52;;;6.70;99.90;;;;;;5068596;28;20139;-68
2022/01/14 00:09:23;;;;;;;24.38;12.57;;;6.80;99.90;;;;;;5069279;28;20246;-69
2022/01/14 00:11:53;;;;;;;25.67;12.82;;;6.80;99.90;;;;;;5068287;28;20129;-69
2022/01/14 00:14:37;;;;;;;22.02;12.32;;;7.70;99.90;;;;;;5049551;28;20053;-69
2022/01/14 00:17:04;;;;;;;22.95;11.60;;;6.80;99.90;;;;;;5056546;28;20044;-69
2022/01/14 00:19:30;;;;;;;23.17;12.18;;;6.80;99.90;;;;;;5067919;28;20056;-69
2022/01/14 00:21:56;;;;;;;25.73;11.60;;;6.70;99.90;;;;;;5049625;28;20051;-68
2022/01/14 00:32:25;;;;;;;19.70;11.15;;;6.80;99.90;;;;;;5025589;28;20048;-69
2022/01/14 00:34:51;;;;;;;27.65;12.98;;;6.80;99.90;;;;;;5066898;28;20071;-69
2022/01/14 00:37:17;;;;;;;25.17;12.52;;;6.80;99.90;;;;;;5067348;28;20441;-69
2022/01/14 00:39:43;;;;;;;28.38;13.80;;;6.80;99.90;;;;;;5067526;28;20186;-69
2022/01/14 00:42:10;;;;;;;26.42;13.63;;;6.80;99.90;;;;;;5037395;28;20476;-69
2022/01/14 00:44:36;;;;;;;25.45;12.48;;;6.80;99.90;;;;;;5065144;28;20504;-69
2022/01/14 00:47:03;;;;;;;21.00;10.05;;;6.80;99.90;;;;;;5066396;28;20052;-69
2022/01/14 00:49:29;;;;;;;27.33;12.70;;;6.90;99.90;;;;;;5050697;28;20195;-69
2022/01/14 00:51:55;;;;;;;24.10;10.95;;;6.80;99.90;;;;;;5072422;28;20044;-68
2022/01/14 00:54:21;;;;;;;32.65;12.10;;;6.90;99.90;;;;;;5071098;28;20071;-68
2022/01/14 00:57:00;;;;;;;24.38;12.10;;;6.80;99.90;;;;;;5052449;28;20563;-69
2022/01/14 00:59:26;;;;;;;24.27;12.13;;;6.80;99.90;;;;;;5053678;28;20125;-69
2022/01/14 01:01:56;;;;;;;29.50;12.63;;;6.70;99.90;;;;;;5051637;28;20542;-69
2022/01/14 01:04:30;;;;;;;27.58;12.25;;;6.70;99.90;;;;;;5052653;28;20058;-68
2022/01/14 01:06:58;;;;;;;27.63;12.70;;;6.60;99.90;;;;;;5039678;28;20052;-68
2022/01/14 01:09:25;;;;;;;23.70;12.52;;;6.50;99.90;;;;;;5070215;28;20048;-68
2022/01/14 01:11:55;;;;;;;26.23;12.10;;;6.50;99.90;;;;;;5069694;28;20053;-69
2022/01/14 01:14:39;;;;;;;24.58;13.48;;;6.50;99.90;;;;;;5052697;28;20049;-69
2022/01/14 01:17:05;;;;;;;30.10;12.60;;;6.40;99.90;;;;;;5051542;28;20048;-69
2022/01/14 01:19:31;;;;;;;25.73;12.57;;;6.40;99.90;;;;;;5051627;28;20052;-68
2022/01/14 01:21:56;;;;;;;25.25;12.43;;;6.40;99.90;;;;;;5052254;28;20566;-68
2022/01/14 01:24:22;;;;;;;27.27;12.73;;;6.40;99.90;;;;;;5052366;28;20052;-69
2022/01/14 01:26:50;;;;;;;28.25;12.90;;;6.50;99.90;;;;;;5070250;28;20156;-69
2022/01/14 01:31:45;;;;;;;29.88;12.27;;;6.50;99.90;;;;;;5051192;28;20198;-68
2022/01/14 01:34:20;;;;;;;30.13;13.63;;;6.50;99.90;;;;;;5070554;28;20049;-69
2022/01/14 01:36:48;;;;;;;30.17;13.50;;;6.60;99.90;;;;;;5071042;28;20060;-69
2022/01/14 01:39:17;;;;;;;28.40;13.55;;;6.60;99.90;;;;;;5069630;28;20048;-68
2022/01/14 01:41:48;;;;;;;31.42;13.88;;;6.50;99.90;;;;;;5062007;28;20086;-69
2022/01/14 01:44:15;;;;;;;31.77;13.38;;;6.60;99.90;;;;;;5065093;28;20470;-69
2022/01/14 01:46:46;;;;;;;28.67;14.13;;;6.60;99.90;;;;;;5068659;28;20060;-69
2022/01/14 01:49:12;;;;;;;30.15;14.40;;;6.60;99.90;;;;;;5070386;28;20092;-68
2022/01/14 01:51:39;;;;;;;23.30;12.38;;;6.70;99.90;;;;;;5035495;28;20052;-69
2022/01/14 01:54:05;;;;;;;30.48;13.68;;;6.70;99.90;;;;;;5069520;28;20048;-69
2022/01/14 01:56:31;;;;;;;30.52;13.98;;;6.70;99.90;;;;;;5051297;28;20052;-69
2022/01/14 01:58:58;;;;;;;23.38;13.57;;;6.70;99.90;;;;;;5069362;28;20067;-69
2022/01/14 02:01:26;;;;;;;28.92;13.32;;;6.70;99.90;;;;;;5068212;28;20041;-69
2022/01/14 02:03:55;;;;;;;28.15;12.57;;;6.70;99.90;;;;;;5070012;28;20052;-69
2022/01/14 02:06:22;;;;;;;30.70;14.38;;;6.70;99.90;;;;;;5065129;28;20396;-69
2022/01/14 02:08:49;;;;;;;26.92;13.25;;;6.70;99.90;;;;;;5051972;28;20095;-69
2022/01/14 02:11:15;;;;;;;27.48;14.05;;;6.60;99.90;;;;;;5068396;28;20052;-68
2022/01/14 02:13:41;;;;;;;34.10;14.40;;;6.70;99.90;;;;;;5070275;28;20538;-69
2022/01/14 02:23:54;;;;;;;;;;;6.80;99.90;;;;;;5052501;28;20052;-69
2022/01/14 02:26:21;;;;;;;33.38;13.63;;;6.80;99.90;;;;;;5050523;28;19958;-69
2022/01/14 02:28:49;;;;;;;27.88;12.85;;;6.70;99.90;;;;;;5068401;28;20179;-68
2022/01/14 02:31:15;;;;;;;26.27;13.50;;;6.80;99.90;;;;;;5034875;28;20404;-68
2022/01/14 02:33:41;;;;;;;29.23;14.35;;;6.80;99.90;;;;;;5051223;28;20091;-69
2022/01/14 02:36:07;;;;;;;24.67;13.77;;;6.80;99.90;;;;;;5068954;28;20072;-69
2022/01/14 02:38:33;;;;;;;31.98;13.55;;;6.90;99.90;;;;;;5051762;28;20131;-69
2022/01/14 02:40:59;;;;;;;29.48;14.50;;;6.90;99.90;;;;;;5050526;28;20552;-69
2022/01/14 02:43:26;;;;;;;26.40;14.63;;;6.80;99.90;;;;;;5068097;28;20130;-69
2022/01/14 02:45:54;;;;;;;28.90;14.43;;;6.80;99.90;;;;;;5068692;28;20066;-69
2022/01/14 02:48:22;;;;;;;25.45;14.05;;;6.80;99.90;;;;;;5068827;28;20052;-69
2022/01/14 02:53:42;;;;;;;30.90;14.25;;;6.80;99.90;;;;;;5050718;28;20438;-69
2022/01/14 02:56:19;;;;;;;25.63;14.70;;;6.80;99.90;;;;;;5020486;28;20139;-69
2022/01/14 02:58:46;;;;;;;32.22;15.10;;;6.80;99.90;;;;;;5049953;28;20080;-69
2022/01/14 03:01:18;;;;;;;32.35;14.95;;;6.70;99.90;;;;;;5048154;28;20048;-69
2022/01/14 03:03:45;;;;;;;27.55;14.10;;;6.70;99.90;;;;;;5049106;28;20057;-69
2022/01/14 03:06:12;;;;;;;28.08;13.80;;;6.80;99.90;;;;;;5048353;28;20049;-69
2022/01/14 03:08:38;;;;;;;30.27;14.82;;;6.80;99.90;;;;;;5050253;28;20098;-69
2022/01/14 03:11:14;;;;;;;31.63;14.68;;;6.80;99.90;;;;;;5047450;28;20049;-69
2022/01/14 03:13:40;;;;;;;27.65;14.60;;;6.80;99.90;;;;;;5031127;28;20344;-69
2022/01/14 03:16:07;;;;;;;29.48;14.90;;;6.80;99.90;;;;;;5046705;28;20122;-69
2022/01/14 03:18:42;;;;;;;37.17;15.65;;;6.80;99.90;;;;;;5047871;28;20059;-69
2022/01/14 03:21:12;;;;;;;26.87;15.90;;;6.80;99.90;;;;;;5048370;28;20081;-68
2022/01/14 03:23:48;;;;;;;32.28;15.48;;;6.90;99.90;;;;;;5033462;28;20299;-69
2022/01/14 03:26:15;;;;;;;25.95;15.98;;;6.80;99.90;;;;;;5049308;28;20041;-68
2022/01/14 03:28:42;;;;;;;33.22;15.48;;;6.80;99.90;;;;;;5048600;28;20128;-68
2022/01/14 03:31:08;;;;;;;32.35;15.73;;;6.80;99.90;;;;;;5047718;28;20088;-68
2022/01/14 03:33:34;;;;;;;30.08;15.85;;;6.90;99.90;;;;;;5045126;28;20203;-68
2022/01/14 03:36:00;;;;;;;31.05;16.25;;;7.00;99.90;;;;;;5047616;28;20361;-68
2022/01/14 03:38:26;;;;;;;34.10;17.02;;;7.00;99.90;;;;;;5032665;28;20049;-70
2022/01/14 03:40:51;;;;;;;30.52;15.80;;;7.00;99.90;;;;;;5037518;28;20049;-69
2022/01/14 03:43:18;;;;;;;30.58;15.13;;;8.00;99.90;;;;;;5049439;28;20143;-69
2022/01/14 03:45:44;;;;;;;34.67;16.42;;;7.00;99.90;;;;;;5047723;28;20055;-68
2022/01/14 03:48:10;;;;;;;33.30;16.63;;;7.00;99.90;;;;;;5047477;28;20044;-68
2022/01/14 03:50:36;;;;;;;29.02;15.95;;;7.00;99.90;;;;;;5048120;28;20049;-67
2022/01/14 03:53:03;;;;;;;32.00;16.80;;;7.10;99.90;;;;;;5045786;28;20052;-70
2022/01/14 03:55:28;;;;;;;27.60;15.52;;;7.00;99.90;;;;;;5068278;28;20060;-70
2022/01/14 03:57:54;;;;;;;33.97;15.63;;;7.00;99.90;;;;;;5067638;28;20060;-70
2022/01/14 04:00:20;;;;;;;34.42;16.83;;;7.00;99.90;;;;;;5064935;28;20194;-70
2022/01/14 04:02:46;;;;;;;33.05;16.88;;;7.10;99.90;;;;;;5033978;28;20123;-71
2022/01/14 04:05:12;;;;;;;29.38;16.20;;;6.30;99.90;;;;;;5062872;28;20052;-70
2022/01/14 04:07:38;;;;;;;26.08;15.85;;;7.00;99.90;;;;;;5029076;28;20048;-70
2022/01/14 04:10:05;;;;;;;27.42;15.73;;;7.00;99.90;;;;;;5028962;28;20122;-70
2022/01/14 04:18:01;;;;;;;27.40;14.70;;;7.10;99.90;;;;;;5027709;28;20502;-70
2022/01/14 04:20:28;;;;;;;30.10;14.93;;;7.10;99.90;;;;;;5018502;28;20049;-70
2022/01/14 04:22:54;;;;;;;29.85;14.52;;;7.10;99.90;;;;;;5037927;28;20119;-69
2022/01/14 04:25:20;;;;;;;27.90;15.13;;;7.70;99.90;;;;;;5013706;28;20045;-70
2022/01/14 04:27:46;;;;;;;30.45;15.30;;;7.00;99.90;;;;;;5032437;28;20485;-69
2022/01/14 04:30:12;;;;;;;30.23;14.82;;;6.90;99.90;;;;;;5053128;28;20482;-69
2022/01/14 04:32:39;;;;;;;33.30;15.52;;;6.90;99.90;;;;;;5050793;28;20049;-69
2022/01/14 04:35:05;;;;;;;27.00;15.20;;;6.80;99.90;;;;;;5069605;28;20075;-70
2022/01/14 04:37:30;;;;;;;29.73;14.07;;;6.60;99.90;;;;;;5053680;28;20453;-70
2022/01/14 04:39:56;;;;;;;29.73;15.32;;;6.80;99.90;;;;;;5071031;28;20082;-69
2022/01/14 04:42:23;;;;;;;29.50;14.82;;;6.70;99.90;;;;;;5056826;28;20057;-70
2022/01/14 04:44:53;;;;;;;31.83;14.95;;;6.70;99.90;;;;;;5071611;28;20052;-69
2022/01/14 04:47:30;;;;;;;31.10;15.35;;;6.80;99.90;;;;;;5070127;28;20094;-70
2022/01/14 04:49:56;;;;;;;29.90;14.60;;;7.70;99.90;;;;;;5073028;28;20140;-70
2022/01/14 04:52:23;;;;;;;29.13;15.15;;;6.80;99.90;;;;;;5055427;28;20518;-69
2022/01/14 04:54:48;;;;;;;30.48;14.52;;;6.80;99.90;;;;;;5055046;28;20052;-70
2022/01/14 04:57:16;;;;;;;32.85;15.98;;;6.80;99.90;;;;;;5037424;28;20090;-70
2022/01/14 04:59:46;;;;;;;29.20;14.90;;;6.80;99.90;;;;;;5035528;28;20053;-69
2022/01/14 05:02:12;;;;;;;26.00;14.10;;;6.70;99.90;;;;;;5034202;28;20450;-70
2022/01/14 05:04:38;;;;;;;26.20;14.75;;;6.70;99.90;;;;;;5051055;28;20169;-70
2022/01/14 05:07:04;;;;;;;29.80;14.02;;;6.80;99.90;;;;;;5050803;28;20497;-68
2022/01/14 05:09:37;;;;;;;28.15;15.10;;;6.80;99.90;;;;;;5032065;28;20047;-70
2022/01/14 05:12:09;;;;;;;30.40;15.70;;;6.80;99.90;;;;;;5049381;28;20053;-68
2022/01/14 05:14:35;;;;;;;30.65;14.45;;;6.80;99.90;;;;;;5062517;28;20392;-67
2022/01/14 05:17:01;;;;;;;26.63;15.50;;;6.80;99.90;;;;;;5061169;28;20401;-68
2022/01/14 05:19:27;;;;;;;27.80;16.10;;;8.30;99.90;;;;;;5021430;28;20532;-68
2022/01/14 05:21:52;;;;;;;30.75;16.10;;;6.80;99.90;;;;;;5070726;28;20395;-68
2022/01/14 05:24:18;;;;;;;27.92;15.15;;;6.80;99.90;;;;;;5069111;28;20535;-68
2022/01/14 05:26:43;;;;;;;38.30;16.77;;;6.70;99.90;;;;;;5070446;28;20045;-68
2022/01/14 05:29:09;;;;;;;29.25;16.13;;;6.70;99.90;;;;;;5070526;28;20098;-68
2022/01/14 05:31:48;;;;;;;27.83;16.45;;;6.70;99.90;;;;;;5068356;28;20395;-68
2022/01/14 05:34:13;;;;;;;28.77;15.65;;;6.70;99.90;;;;;;5042166;28;20132;-68
2022/01/14 05:36:39;;;;;;;32.97;17.10;;;6.70;99.90;;;;;;5050137;28;20191;-68
2022/01/14 05:39:06;;;;;;;29.48;16.33;;;6.80;99.90;;;;;;5049077;28;20049;-68
2022/01/14 05:41:31;;;;;;;31.35;15.38;;;6.80;99.90;;;;;;5048489;28;20113;-68
2022/01/14 05:43:57;;;;;;;30.50;16.60;;;6.80;99.90;;;;;;5053296;28;20065;-68
2022/01/14 05:46:23;;;;;;;37.28;17.00;;;7.70;99.90;;;;;;5049549;28;20820;-68
2022/01/14 05:48:48;;;;;;;29.02;15.20;;;6.80;99.90;;;;;;5044704;28;20055;-68
2022/01/14 05:51:14;;;;;;;29.63;16.02;;;6.80;99.90;;;;;;5060886;28;20086;-69
2022/01/14 05:53:40;;;;;;;33.17;16.77;;;6.80;99.90;;;;;;5070444;28;20049;-68
2022/01/14 05:56:05;;;;;;;29.63;15.75;;;7.00;99.90;;;;;;5052085;28;20057;-68
2022/01/14 05:58:31;;;;;;;33.33;16.52;;;6.70;99.90;;;;;;5069107;28;20442;-68
2022/01/14 06:00:57;;;;;;;26.17;17.20;;;6.80;99.90;;;;;;5068279;28;20053;-70
2022/01/14 06:03:22;;;;;;;29.58;16.92;;;7.10;99.90;;;;;;5051666;28;20044;-68
2022/01/14 06:05:49;;;;;;;30.23;15.68;;;6.80;99.90;;;;;;5032369;28;20060;-68
2022/01/14 06:08:15;;;;;;;26.45;15.60;;;6.80;99.90;;;;;;5057110;28;20523;-68
2022/01/14 06:10:40;;;;;;;34.05;16.33;;;6.90;99.90;;;;;;5069297;28;20052;-68
2022/01/14 06:13:06;;;;;;;35.60;16.05;;;6.90;99.90;;;;;;5071074;28;20588;-68
2022/01/14 06:15:32;;;;;;;30.70;15.93;;;6.90;99.90;;;;;;5052287;28;20045;-68
2022/01/14 06:17:58;;;;;;;32.95;15.50;;;6.80;99.90;;;;;;5068342;28;20405;-68
2022/01/14 06:20:23;;;;;;;26.45;15.07;;;6.90;99.90;;;;;;5051135;28;20052;-68
2022/01/14 06:22:50;;;;;;;30.27;15.93;;;6.90;99.90;;;;;;5069642;28;20036;-68
2022/01/14 06:25:15;;;;;;;29.65;15.35;;;6.90;99.90;;;;;;5069523;28;20063;-68
2022/01/14 06:27:41;;;;;;;33.55;15.57;;;6.90;99.90;;;;;;5068850;28;20036;-68
2022/01/14 06:30:08;;;;;;;31.05;15.68;;;7.00;99.90;;;;;;5068635;28;20052;-71
2022/01/14 06:32:41;;;;;;;29.08;15.63;;;6.90;99.90;;;;;;5050579;28;20103;-68
2022/01/14 06:35:11;;;;;;;31.17;15.55;;;6.90;99.90;;;;;;5051441;28;20401;-69
2022/01/14 06:37:37;;;;;;;27.55;15.82;;;6.90;99.90;;;;;;5020414;28;20079;-70
2022/01/14 06:40:04;;;;;;;28.55;15.05;;;6.80;99.90;;;;;;5068712;28;20122;-69
2022/01/14 06:42:30;;;;;;;28.17;13.52;;;6.90;99.90;;;;;;5053614;28;20489;-69
2022/01/14 06:44:56;;;;;;;29.48;15.38;;;7.00;99.90;;;;;;5071390;28;20063;-69
2022/01/14 06:47:23;;;;;;;29.95;14.70;;;6.90;99.90;;;;;;5051461;28;20063;-69
2022/01/14 06:49:49;;;;;;;27.33;14.30;;;6.80;99.90;;;;;;5067770;28;20048;-69
2022/01/14 06:52:14;;;;;;;23.63;13.45;;;6.90;99.90;;;;;;5068475;28;20060;-69
2022/01/14 06:54:41;;;;;;;23.90;13.90;;;6.90;99.90;;;;;;5050450;28;20055;-69
2022/01/14 06:57:07;;;;;;;27.95;13.82;;;6.90;99.90;;;;;;5067012;28;20543;-69
2022/01/14 06:59:32;;;;;;;27.10;13.90;;;6.90;99.90;;;;;;5050963;28;20052;-69
2022/01/14 07:02:00;;;;;;;26.02;12.63;;;6.80;99.90;;;;;;5048959;28;20055;-69
2022/01/14 07:04:25;;;;;;;23.80;12.48;;;6.90;99.90;;;;;;5066822;28;20049;-69
2022/01/14 07:06:51;;;;;;;24.27;13.18;;;7.00;99.90;;;;;;5051100;28;20568;-68
2022/01/14 07:09:17;;;;;;;29.70;12.02;;;6.90;99.90;;;;;;5049463;28;20487;-70
2022/01/14 07:11:47;;;;;;;22.25;12.70;;;6.90;99.90;;;;;;5051230;28;20044;-69
2022/01/14 07:14:12;;;;;;;31.65;11.68;;;6.90;99.90;;;;;;5033578;28;20091;-69
2022/01/14 07:16:38;;;;;;;23.55;12.07;;;6.90;99.90;;;;;;5048839;28;20052;-70
2022/01/14 07:19:04;;;;;;;22.35;11.65;;;6.90;99.90;;;;;;5068688;28;20048;-70
2022/01/14 07:21:33;;;;;;;22.17;11.52;;;7.00;99.90;;;;;;5066151;28;20485;-69
2022/01/14 07:23:58;;;;;;;25.33;11.07;;;6.90;99.90;;;;;;5067952;28;20127;-70
2022/01/14 07:26:24;;;;;;;24.65;10.75;;;6.90;99.90;;;;;;5066882;28;20131;-70
2022/01/14 07:28:50;;;;;;;26.70;11.77;;;7.20;99.90;;;;;;5068787;28;20361;-70
2022/01/14 07:31:15;;;;;;;21.13;9.82;;;7.00;99.90;;;;;;5031174;28;20055;-70
2022/01/14 07:33:41;;;;;;;22.85;9.63;;;7.00;99.90;;;;;;5031942;28;20040;-69
2022/01/14 07:36:06;;;;;;;29.25;11.55;;;6.90;99.90;;;;;;5049261;28;20048;-69
2022/01/14 07:38:32;;;;;;;25.80;10.25;;;7.90;99.90;;;;;;5066468;28;20080;-68
2022/01/14 07:40:58;;;;;;;26.17;10.20;;;7.00;99.90;;;;;;5066724;28;20463;-69
2022/01/14 07:43:23;;;;;;;23.08;10.40;;;7.00;99.90;;;;;;5066890;28;20045;-71
2022/01/14 07:45:49;;;;;;;21.63;9.73;;;7.00;99.90;;;;;;5049442;28;20119;-68
2022/01/14 07:48:15;;;;;;;20.65;9.93;;;7.10;99.90;;;;;;5067402;28;20044;-68
2022/01/14 07:50:40;;;;;;;28.88;10.13;;;7.10;99.90;;;;;;5069390;28;20044;-69
2022/01/14 07:53:06;;;;;;;23.50;9.82;;;7.00;99.90;;;;;;5066975;28;20127;-70
2022/01/14 07:55:32;;;;;;;28.20;10.48;;;7.80;99.90;;;;;;5067392;28;20487;-68
2022/01/14 07:57:57;;;;;;;27.67;9.85;;;7.00;99.90;;;;;;5068271;28;20051;-70
2022/01/14 08:00:23;;;;;;;26.63;10.00;;;7.10;99.90;;;;;;5064859;28;20055;-68
2022/01/14 08:02:49;;;;;;;21.52;8.73;;;7.00;99.90;;;;;;5046364;28;20059;-70
2022/01/14 08:05:16;;;;;;;25.35;8.63;;;7.10;99.90;;;;;;5063673;28;20084;-70
2022/01/14 08:07:46;;;;;;;29.17;9.27;;;7.10;99.90;;;;;;5067427;28;20056;-70
2022/01/14 08:10:13;;;;;;;25.17;8.38;;;7.10;99.90;;;;;;5068895;28;20108;-69
2022/01/14 08:12:40;;;;;;;20.73;8.15;;;7.10;99.90;;;;;;5069039;28;20044;-70
2022/01/14 08:15:07;;;;;;;22.50;8.52;;;7.20;99.90;;;;;;5068200;28;20412;-70
2022/01/14 08:17:33;;;;;;;26.88;8.88;;;7.20;99.90;;;;;;5066445;28;20056;-70
2022/01/14 08:19:58;;;;;;;23.08;8.75;;;7.20;99.90;;;;;;5048713;28;20040;-68
2022/01/14 08:22:24;;;;;;;19.88;8.40;;;7.20;99.90;;;;;;5067907;28;20056;-70
2022/01/14 08:24:50;;;;;;;16.48;7.55;;;7.30;99.90;;;;;;5067131;28;20508;-69
2022/01/14 08:27:15;;;;;;;21.92;8.23;;;7.20;99.90;;;;;;5066559;28;20052;-68
2022/01/14 08:29:41;;;;;;;20.38;8.63;;;7.20;99.90;;;;;;5048665;28;20103;-70
2022/01/14 08:32:07;;;;;;;13.95;7.65;;;7.20;99.90;;;;;;5048465;28;20097;-70
2022/01/14 08:34:33;;;;;;;20.23;7.93;;;7.30;99.90;;;;;;5059975;28;20473;-70
2022/01/14 08:36:59;;;;;;;22.85;8.15;;;7.30;99.90;;;;;;5067177;28;20056;-70
2022/01/14 08:39:25;;;;;;;19.77;8.70;;;7.40;99.90;;;;;;5067412;28;20408;-70
2022/01/14 08:41:51;;;;;;;16.48;8.40;;;7.60;99.90;;;;;;5066327;28;20399;-69
2022/01/14 08:44:16;;;;;;;20.27;8.65;;;7.40;99.90;;;;;;5067137;28;20052;-68
2022/01/14 08:46:42;;;;;;;20.80;7.78;;;7.40;99.90;;;;;;5066966;28;20044;-70
2022/01/14 08:49:09;;;;;;;22.38;8.88;;;7.50;99.90;;;;;;5066431;28;20049;-70
2022/01/14 08:51:36;;;;;;;18.98;7.50;;;8.70;99.90;;;;;;5067732;28;20057;-70
2022/01/14 08:54:03;;;;;;;21.60;8.27;;;7.50;99.90;;;;;;5049643;28;20049;-67
2022/01/14 08:56:32;;;;;;;16.65;7.25;;;7.60;99.90;;;;;;5063786;28;20060;-67
2022/01/14 08:58:58;;;;;;;19.52;7.57;;;7.70;99.90;;;;;;5067624;28;20044;-65
2022/01/14 09:01:24;;;;;;;18.98;7.45;;;7.60;99.90;;;;;;5048020;28;20182;-67
2022/01/14 09:03:49;;;;;;;17.55;6.70;;;7.60;99.90;;;;;;5066672;28;20492;-65
2022/01/14 09:06:15;;;;;;;18.20;5.90;;;7.60;99.90;;;;;;5068104;28;20049;-67
2022/01/14 09:08:41;;;;;;;19.38;6.18;;;7.70;99.90;;;;;;5069228;28;20554;-66
2022/01/14 09:11:08;;;;;;;15.52;7.05;;;7.80;99.90;;;;;;5047583;28;20080;-66
2022/01/14 09:13:34;;;;;;;18.50;6.55;;;7.80;99.90;;;;;;5058189;28;20129;-66
2022/01/14 09:16:00;;;;;;;13.85;5.32;;;7.80;99.90;;;;;;5032244;28;20078;-66
2022/01/14 09:18:26;;;;;;;14.68;6.18;;;8.70;99.90;;;;;;5050005;28;20124;-65
2022/01/14 09:20:52;;;;;;;17.05;5.65;;;7.90;99.90;;;;;;5051023;28;20553;-65
2022/01/14 09:23:24;;;;;;;15.60;5.88;;;7.80;99.90;;;;;;5055963;28;20052;-65
2022/01/14 09:25:53;;;;;;;16.13;6.18;;;7.90;99.90;;;;;;5070496;28;20056;-66
2022/01/14 09:28:19;;;;;;;16.23;6.22;;;7.90;99.90;;;;;;5069768;28;20049;-67
2022/01/14 09:30:45;;;;;;;13.05;5.15;;;8.00;99.90;;;;;;5070387;28;20458;-65
2022/01/14 09:33:11;;;;;;;13.88;5.00;;;8.00;99.90;;;;;;5069913;28;20052;-66
2022/01/14 09:35:37;;;;;;;15.60;5.25;;;8.00;99.90;;;;;;5052735;28;20049;-66
2022/01/14 09:38:03;;;;;;;15.70;4.75;;;8.00;99.90;;;;;;5037018;28;20515;-67
2022/01/14 09:40:29;;;;;;;16.77;5.05;;;8.00;99.90;;;;;;5068849;28;20149;-66
2022/01/14 09:43:00;;;;;;;16.20;5.10;;;8.00;99.90;;;;;;5069400;28;20076;-66
2022/01/14 09:45:28;;;;;;;14.02;4.43;;;8.00;99.90;;;;;;5069260;28;20412;-67
2022/01/14 09:47:55;;;;;;;19.35;4.15;;;8.30;99.90;;;;;;5069449;28;20052;-67
2022/01/14 09:50:21;;;;;;;12.35;4.40;;;8.30;99.90;;;;;;5071432;28;20041;-67
2022/01/14 09:52:51;;;;;;;16.40;4.18;;;8.70;99.90;;;;;;5069530;28;20084;-67
2022/01/14 09:55:24;;;;;;;13.70;4.28;;;8.40;99.90;;;;;;5069536;28;20051;-67
2022/01/14 09:57:53;;;;;;;12.85;4.43;;;8.40;99.90;;;;;;5051730;28;20049;-67
2022/01/14 10:00:19;;;;;;;11.85;4.05;;;8.40;99.90;;;;;;5067541;28;20048;-67
2022/01/14 10:02:45;;;;;;;17.95;4.40;;;8.40;99.90;;;;;;5053630;28;20332;-67
2022/01/14 10:05:32;;;;;;;14.82;4.53;;;8.90;99.90;;;;;;5049700;28;20095;-67
2022/01/14 10:08:20;;;;;;;12.90;4.13;;;8.40;99.90;;;;;;5061915;28;20385;-67
2022/01/14 10:10:48;;;;;;;14.63;4.25;;;8.50;99.90;;;;;;5068445;28;20147;-67
2022/01/14 10:13:18;;;;;;;15.18;4.40;;;8.50;99.90;;;;;;5068128;28;20041;-67
2022/01/14 10:16:05;;;;;;;13.73;4.18;;;8.40;99.90;;;;;;5071925;28;20055;-67
2022/01/14 10:18:33;;;;;;;15.23;3.72;;;8.40;99.90;;;;;;5070369;28;20119;-67
2022/01/14 10:21:08;;;;;;;17.95;3.97;;;8.40;99.90;;;;;;5070141;28;20048;-68
2022/01/14 10:23:41;;;;;;;12.57;4.23;;;8.30;99.90;;;;;;5060842;28;20064;-67
2022/01/14 10:26:07;;;;;;;16.30;3.92;;;8.30;99.90;;;;;;5032170;28;20132;-68
2022/01/14 10:28:33;;;;;;;13.45;3.67;;;8.30;99.90;;;;;;5066043;28;20615;-68
2022/01/14 10:31:01;;;;;;;14.40;3.92;;;8.40;99.90;;;;;;5061516;28;20057;-68
2022/01/14 10:33:28;;;;;;;17.35;3.65;;;8.40;99.90;;;;;;5035014;28;20141;-68
2022/01/14 10:35:54;;;;;;;11.45;3.70;;;9.00;99.90;;;;;;5062838;28;20054;-68
2022/01/14 10:38:23;;;;;;;11.10;3.50;;;8.20;99.90;;;;;;5067528;28;20123;-68
2022/01/14 10:40:52;;;;;;;17.42;3.42;;;9.50;99.90;;;;;;5073992;28;20040;-68
2022/01/14 10:43:21;;;;;;;14.88;3.38;;;8.30;99.90;;;;;;5070182;28;20102;-68
2022/01/14 10:45:51;;;;;;;13.98;3.15;;;9.50;99.90;;;;;;5066779;28;20111;-68
2022/01/14 10:48:31;;;;;;;12.68;3.10;;;8.30;99.90;;;;;;5070117;28;20048;-67
2022/01/14 10:51:05;;;;;;;16.20;3.72;;;8.30;99.90;;;;;;5071126;28;20098;-67
2022/01/14 10:53:34;;;;;;;15.25;3.88;;;8.40;99.90;;;;;;5048847;28;20084;-68
2022/01/14 10:56:08;;;;;;;17.35;3.67;;;8.40;99.90;;;;;;5047941;28;20072;-68
2022/01/14 10:58:37;;;;;;;13.50;3.63;;;8.40;99.90;;;;;;5048517;28;20053;-68
2022/01/14 11:01:07;;;;;;;18.02;4.43;;;8.30;99.90;;;;;;5048291;28;20394;-69
2022/01/14 11:03:36;;;;;;;19.17;3.70;;;8.30;99.90;;;;;;5023265;28;20400;-67
2022/01/14 11:06:20;;;;;;;13.10;3.65;;;8.30;99.90;;;;;;5068457;28;20053;-68
2022/01/14 11:08:48;;;;;;;12.13;3.78;;;8.40;99.90;;;;;;5067558;28;20462;-66
2022/01/14 11:11:14;;;;;;;17.45;4.53;;;8.30;99.90;;;;;;5067207;28;20056;-69
2022/01/14 11:13:40;;;;;;;16.63;4.22;;;8.30;99.90;;;;;;5067635;28;20056;-68
2022/01/14 11:16:06;;;;;;;17.85;5.40;;;8.40;99.90;;;;;;5067255;28;20834;-66
2022/01/14 11:18:31;;;;;;;14.55;4.97;;;8.30;99.90;;;;;;5068385;28;20052;-68
2022/01/14 11:23:41;;;;;;;25.15;4.72;;;8.40;99.90;;;;;;5061101;28;20057;-68
2022/01/14 11:26:12;;;;;;;18.48;4.43;;;8.30;99.90;;;;;;5032789;28;20060;-69
2022/01/14 11:28:41;;;;;;;13.60;4.20;;;8.40;99.90;;;;;;5045175;28;20053;-74
2022/01/14 11:31:31;;;;;;;17.13;4.50;;;8.40;99.90;;;;;;5043831;28;20048;-74
2022/01/14 11:33:58;;;;;;;17.55;4.90;;;8.40;99.90;;;;;;5038466;28;20463;-72
2022/01/14 11:36:45;;;;;;;19.05;4.63;;;8.20;99.90;;;;;;5063198;28;20143;-74
2022/01/14 11:39:26;;;;;;;19.42;4.60;;;8.40;99.90;;;;;;5064358;28;20049;-72
2022/01/14 11:41:55;;;;;;;24.65;4.90;;;8.40;99.90;;;;;;5045372;28;20187;-73
2022/01/14 11:45:02;;;;;;;12.30;4.40;;;8.40;99.90;;;;;;5063568;28;20409;-73
2022/01/14 11:47:40;;;;;;;21.17;5.55;;;8.50;99.90;;;;;;5061631;28;20127;-74
2022/01/14 11:50:19;;;;;;;17.40;4.50;;;8.50;99.90;;;;;;5046386;28;20056;-72
2022/01/14 11:52:46;;;;;;;18.27;5.50;;;8.50;99.90;;;;;;5084893;28;20055;-73
2022/01/14 11:55:15;;;;;;;22.23;6.18;;;8.90;99.90;;;;;;5066670;28;20113;-72
2022/01/14 11:57:42;;;;;;;20.17;4.90;;;9.60;99.90;;;;;;5084475;28;20512;-73
2022/01/14 12:00:40;;;;;;;22.30;5.20;;;8.50;99.90;;;;;;5039664;28;20090;-72
2022/01/14 12:03:28;;;;;;;23.30;5.82;;;8.60;99.90;;;;;;5043499;28;20085;-72
2022/01/14 12:06:07;;;;;;;15.85;5.30;;;8.60;99.90;;;;;;5050962;28;20063;-68
2022/01/14 12:08:34;;;;;;;18.60;4.95;;;8.60;99.90;;;;;;5057808;28;20233;-68
2022/01/14 12:11:06;;;;;;;22.60;5.45;;;8.60;99.90;;;;;;5066517;28;20056;-68
2022/01/14 12:18:57;;;;;;;21.00;5.18;;;8.50;99.90;;;;;;5063725;28;20055;-67
2022/01/14 12:21:50;;;;;;;20.10;5.47;;;8.60;99.90;;;;;;5047643;28;20061;-66
2022/01/14 12:24:18;;;;;;;16.48;5.28;;;8.60;99.90;;;;;;5007338;28;20397;-67
2022/01/14 12:26:55;;;;;;;19.55;4.97;;;8.50;99.90;;;;;;5045890;28;20457;-66
2022/01/14 12:29:38;;;;;;;21.77;5.63;;;8.50;99.90;;;;;;5048466;28;20052;-68
2022/01/14 12:32:34;;;;;;;19.00;5.93;;;8.50;99.90;;;;;;5045967;28;20052;-68
2022/01/14 12:35:06;;;;;;;18.65;6.13;;;8.60;99.90;;;;;;5037246;28;20057;-68
2022/01/14 12:37:38;;;;;;;17.85;5.13;;;8.80;99.90;;;;;;5047239;28;20350;-68
2022/01/14 12:40:07;;;;;;;20.25;5.15;;;8.60;99.90;;;;;;5028531;28;20053;-68
2022/01/14 12:42:33;;;;;;;17.80;4.78;;;8.50;99.90;;;;;;5046483;28;20057;-68
2022/01/14 12:45:00;;;;;;;20.58;5.30;;;8.50;99.90;;;;;;5046626;28;20052;-68
2022/01/14 12:47:35;;;;;;;17.60;5.00;;;8.70;99.90;;;;;;5046373;28;20095;-68
2022/01/14 12:50:10;;;;;;;22.33;4.90;;;8.50;99.90;;;;;;5050528;28;20049;-68
2022/01/14 12:52:48;;;;;;;27.15;5.13;;;8.50;99.90;;;;;;5051069;28;20060;-68
2022/01/14 12:55:14;;;;;;;19.98;5.03;;;8.90;99.90;;;;;;5016701;28;20405;-68
2022/01/14 12:57:40;;;;;;;20.85;5.40;;;8.50;99.90;;;;;;5051493;28;20515;-69
2022/01/14 13:00:08;;;;;;;20.90;4.53;;;9.50;99.90;;;;;;5051403;28;20052;-68
2022/01/14 13:02:34;;;;;;;23.13;5.68;;;8.50;99.90;;;;;;5049717;28;20092;-68
2022/01/14 13:05:06;;;;;;;23.13;5.20;;;8.50;99.90;;;;;;5050832;28;20535;-68
2022/01/14 13:07:33;;;;;;;20.40;5.85;;;8.40;99.90;;;;;;5033132;28;20057;-67
2022/01/14 13:09:59;;;;;;;20.90;5.50;;;8.40;99.90;;;;;;5050230;28;20055;-67
2022/01/14 13:12:34;;;;;;;23.00;5.95;;;8.40;99.90;;;;;;5032958;28;20075;-68
2022/01/14 13:15:02;;;;;;;26.98;5.47;;;8.40;99.90;;;;;;5032342;28;20052;-67
2022/01/14 13:17:40;;;;;;;22.55;5.75;;;8.40;99.90;;;;;;5049961;28;20084;-67
2022/01/14 13:20:11;;;;;;;29.17;5.47;;;8.50;99.90;;;;;;5033327;28;20057;-67
2022/01/14 13:22:39;;;;;;;23.05;5.30;;;8.40;99.90;;;;;;5031924;28;20060;-67